Time;durP1;ratioP1;P1;durP2;ratioP2;P2;SDS_P1;SDS_P2;PMS_P1;PMS_P2;Temp;Humidity;BMP_temperature;BMP_pressure;BME280_temperature;BME280_humidity;BME280_pressure;Samples;Min_cycle;Max_cycle;Signal;HPM_P1;HPM_P2
2021/05/03 00:00:06;;;;;;;;;;;;;;;28.03;33.21;100016.03;5016741;28;749;-35
2021/05/03 00:02:31;;;;;;;;;;;;;;;28.07;33.07;100017.28;5016843;28;1004;-35
2021/05/03 00:04:56;;;;;;;;;;;;;;;28.10;32.83;100024.16;4999010;28;1296;-35
2021/05/03 00:07:22;;;;;;;;;;;;;;;28.02;33.24;100019.78;5016566;28;799;-35
2021/05/03 00:09:47;;;;;;;;;;;;;;;28.02;33.22;100024.34;5019021;28;1474;-35
2021/05/03 00:12:12;;;;;;;;;;;;;;;27.96;32.92;100026.84;5020813;28;839;-35
2021/05/03 00:14:37;;;;;;;;;;;;;;;27.98;33.35;100023.91;5020660;28;1902;-35
2021/05/03 00:17:03;;;;;;;;;;;;;;;27.97;33.11;100027.69;5020194;28;972;-35
2021/05/03 00:19:28;;;;;;;;;;;;;;;27.98;33.21;100030.16;5020394;28;899;-35
2021/05/03 00:21:53;;;;;;;;;;;;;;;27.97;33.08;100030.38;5020330;28;1012;-35
2021/05/03 00:24:19;;;;;;;;;;;;;;;27.98;33.23;100034.72;5020171;28;800;-35
2021/05/03 00:26:44;;;;;;;;;;;;;;;27.95;33.08;100027.03;5020625;28;760;-35
2021/05/03 00:29:09;;;;;;;;;;;;;;;27.97;33.03;100023.13;5019954;28;808;-35
2021/05/03 00:31:35;;;;;;;;;;;;;;;28.00;33.25;100027.25;5020004;28;956;-35
2021/05/03 00:34:00;;;;;;;;;;;;;;;27.94;33.18;100011.88;5020488;28;1902;-35
2021/05/03 00:36:25;;;;;;;;;;;;;;;27.95;33.35;100008.97;5002442;28;883;-35
2021/05/03 00:38:51;;;;;;;;;;;;;;;27.91;33.11;100002.28;5020627;28;764;-35
2021/05/03 00:41:16;;;;;;;;;;;;;;;27.96;33.27;99994.41;5020521;28;739;-35
2021/05/03 00:43:41;;;;;;;;;;;;;;;27.95;33.27;99995.44;5019597;28;847;-35
2021/05/03 00:46:07;;;;;;;;;;;;;;;27.96;33.00;99991.69;5019885;28;827;-35
2021/05/03 00:48:32;;;;;;;;;;;;;;;27.98;33.15;99995.03;5019292;28;996;-34
2021/05/03 00:50:58;;;;;;;;;;;;;;;27.97;33.04;100003.34;5020002;28;928;-35
2021/05/03 00:53:23;;;;;;;;;;;;;;;27.92;33.30;100006.69;5019679;28;867;-35
2021/05/03 00:55:48;;;;;;;;;;;;;;;27.95;33.06;100006.25;5019740;28;1977;-34
2021/05/03 00:58:14;;;;;;;;;;;;;;;27.94;33.04;100004.59;5020175;28;803;-34
2021/05/03 01:00:40;;;;;;;;;;;;;;;27.96;33.34;100013.31;5019896;28;790;-35
2021/05/03 01:03:06;;;;;;;;;;;;;;;28.01;33.30;100009.19;5018787;28;948;-35
2021/05/03 01:05:32;;;;;;;;;;;;;;;27.95;33.28;100003.56;5019761;28;760;-35
2021/05/03 01:07:57;;;;;;;;;;;;;;;27.99;33.30;100010.19;5019638;28;764;-35
2021/05/03 01:10:23;;;;;;;;;;;;;;;27.99;33.25;100002.09;5019409;28;1182;-35
2021/05/03 01:12:48;;;;;;;;;;;;;;;27.96;33.17;99999.81;5019665;28;796;-35
2021/05/03 01:15:14;;;;;;;;;;;;;;;28.01;33.09;100001.06;5019455;28;1906;-35
2021/05/03 01:17:42;;;;;;;;;;;;;;;27.95;33.06;99991.91;5019236;28;968;-35
2021/05/03 01:20:14;;;;;;;;;;;;;;;27.91;33.30;99985.25;5019272;28;773;-35
2021/05/03 01:22:39;;;;;;;;;;;;;;;27.92;33.27;99985.06;5019254;28;769;-35
2021/05/03 01:25:05;;;;;;;;;;;;;;;27.93;33.24;99975.88;5019343;28;828;-35
2021/05/03 01:27:30;;;;;;;;;;;;;;;27.96;33.40;99980.06;5019561;28;843;-35
2021/05/03 01:29:56;;;;;;;;;;;;;;;27.93;33.30;99972.34;5019334;28;831;-35
2021/05/03 01:32:21;;;;;;;;;;;;;;;27.93;33.52;99978.59;5019241;28;1004;-35
2021/05/03 01:34:46;;;;;;;;;;;;;;;27.90;33.39;99973.59;5019382;28;1906;-35
2021/05/03 01:37:12;;;;;;;;;;;;;;;27.95;33.36;99971.13;5019236;28;776;-35
2021/05/03 01:39:37;;;;;;;;;;;;;;;27.91;33.30;99959.03;5019056;28;762;-35
2021/05/03 01:42:03;;;;;;;;;;;;;;;27.90;33.26;99961.94;5019127;28;756;-35
2021/05/03 01:44:28;;;;;;;;;;;;;;;27.93;33.28;99956.97;5019143;28;701;-35
2021/05/03 01:46:53;;;;;;;;;;;;;;;27.94;33.42;99953.25;5018412;28;961;-35
2021/05/03 01:49:19;;;;;;;;;;;;;;;27.85;33.38;99952.63;5001376;28;840;-35
2021/05/03 01:51:44;;;;;;;;;;;;;;;27.92;33.40;99949.06;5001322;28;776;-35
2021/05/03 01:54:09;;;;;;;;;;;;;;;27.96;33.17;99958.44;5001433;28;1961;-35
2021/05/03 01:56:35;;;;;;;;;;;;;;;27.96;33.38;99967.38;5018842;28;860;-35
2021/05/03 01:59:00;;;;;;;;;;;;;;;27.91;33.55;99964.44;5000933;28;1292;-35
2021/05/03 02:01:25;;;;;;;;;;;;;;;27.90;33.61;99965.50;5018282;28;961;-35
2021/05/03 02:03:51;;;;;;;;;;;;;;;27.95;33.20;99968.41;5018351;28;507;-35
2021/05/03 02:06:16;;;;;;;;;;;;;;;27.97;33.51;99979.03;5018465;28;807;-35
2021/05/03 02:08:41;;;;;;;;;;;;;;;27.90;33.57;99987.13;5018546;28;796;-34
2021/05/03 02:11:07;;;;;;;;;;;;;;;27.93;33.39;99993.97;5018480;28;1057;-35
2021/05/03 02:13:32;;;;;;;;;;;;;;;27.84;33.85;99999.56;5018140;28;820;-35
2021/05/03 02:15:59;;;;;;;;;;;;;;;27.86;33.68;100005.63;5018679;28;1914;-35
2021/05/03 02:18:24;;;;;;;;;;;;;;;27.94;33.50;100004.59;5018181;28;960;-35
2021/05/03 02:20:49;;;;;;;;;;;;;;;27.92;33.49;100000.44;5018282;28;836;-35
2021/05/03 02:23:15;;;;;;;;;;;;;;;27.92;33.69;99998.56;5018360;28;787;-35
2021/05/03 02:25:40;;;;;;;;;;;;;;;27.91;33.42;100002.28;5017816;28;804;-35
2021/05/03 02:28:05;;;;;;;;;;;;;;;27.91;33.51;100015.81;5018073;28;744;-35
2021/05/03 02:30:30;;;;;;;;;;;;;;;27.90;33.79;100016.00;5018270;28;836;-35
2021/05/03 02:32:56;;;;;;;;;;;;;;;27.91;33.61;100009.59;5016287;28;956;-35
2021/05/03 02:35:22;;;;;;;;;;;;;;;27.94;33.62;99998.34;5017959;28;1906;-35
2021/05/03 02:37:49;;;;;;;;;;;;;;;27.90;33.52;99997.09;5018404;28;741;-35
2021/05/03 02:40:14;;;;;;;;;;;;;;;27.95;33.22;99998.16;5017541;28;1469;-35
2021/05/03 02:42:40;;;;;;;;;;;;;;;27.88;33.40;99991.91;5017863;28;756;-35
2021/05/03 02:45:05;;;;;;;;;;;;;;;27.94;33.62;99993.78;5017935;28;783;-35
2021/05/03 02:47:30;;;;;;;;;;;;;;;27.92;33.64;99989.63;5017479;28;1004;-35
2021/05/03 02:49:56;;;;;;;;;;;;;;;27.87;33.77;99992.94;5017795;28;876;-35
2021/05/03 02:52:21;;;;;;;;;;;;;;;27.91;33.76;100017.69;5017412;28;909;-35
2021/05/03 02:54:46;;;;;;;;;;;;;;;27.92;33.62;99998.56;5017729;28;1906;-35
2021/05/03 02:57:12;;;;;;;;;;;;;;;27.89;33.70;100009.78;5017695;28;752;-35
2021/05/03 02:59:37;;;;;;;;;;;;;;;27.91;33.70;100015.81;5017715;28;859;-35
2021/05/03 03:02:02;;;;;;;;;;;;;;;27.90;33.70;100030.38;5016997;28;945;-34
2021/05/03 03:04:27;;;;;;;;;;;;;;;27.92;33.28;100040.97;4999701;28;1118;-35
2021/05/03 03:06:53;;;;;;;;;;;;;;;27.88;33.49;100045.94;5017606;28;752;-35
2021/05/03 03:09:18;;;;;;;;;;;;;;;27.90;33.57;100048.44;5017050;28;1133;-34
2021/05/03 03:11:46;;;;;;;;;;;;;;;27.85;33.54;100051.78;5017688;28;757;-35
2021/05/03 03:14:12;;;;;;;;;;;;;;;27.86;33.66;100072.38;5016883;28;1977;-35
2021/05/03 03:16:37;;;;;;;;;;;;;;;27.91;33.81;100094.19;5016667;28;925;-35
2021/05/03 03:19:03;;;;;;;;;;;;;;;27.83;33.80;100076.31;5017441;28;744;-35
2021/05/03 03:21:28;;;;;;;;;;;;;;;27.70;34.10;100101.44;5017386;28;780;-34
2021/05/03 03:23:53;;;;;;;;;;;;;;;27.68;33.87;100094.50;4999628;28;748;-34
2021/05/03 03:26:19;;;;;;;;;;;;;;;27.70;34.09;100095.19;5017524;28;804;-35
2021/05/03 03:28:44;;;;;;;;;;;;;;;27.72;34.14;100104.75;5016758;28;815;-34
2021/05/03 03:31:09;;;;;;;;;;;;;;;27.82;33.97;100098.13;5017526;28;815;-34
2021/05/03 03:33:35;;;;;;;;;;;;;;;27.88;33.58;100121.63;5016401;28;1415;-34
2021/05/03 03:36:00;;;;;;;;;;;;;;;27.98;33.38;100129.34;5016862;28;1969;-34
2021/05/03 03:38:25;;;;;;;;;;;;;;;28.01;33.71;100130.81;5016815;28;819;-34
2021/05/03 03:40:51;;;;;;;;;;;;;;;28.00;33.48;100121.88;5017163;28;760;-35
2021/05/03 03:43:16;;;;;;;;;;;;;;;27.54;34.03;100117.97;5016629;28;793;-33
2021/05/03 03:45:41;;;;;;;;;;;;;;;27.01;35.03;100110.19;5017012;28;848;-33
2021/05/03 03:48:07;;;;;;;;;;;;;;;26.87;35.42;100130.00;5016341;28;953;-33
2021/05/03 03:50:32;;;;;;;;;;;;;;;26.80;35.27;100132.66;5016739;28;839;-33
2021/05/03 03:52:58;;;;;;;;;;;;;;;26.51;35.71;100137.19;5016694;28;836;-33
2021/05/03 03:55:23;;;;;;;;;;;;;;;26.41;36.79;100130.25;5016653;28;1898;-31
2021/05/03 03:57:48;;;;;;;;;;;;;;;26.17;37.08;100129.56;4998562;28;1255;-33
2021/05/03 04:00:14;;;;;;;;;;;;;;;24.15;40.87;100117.56;5017261;28;784;-33
2021/05/03 04:02:40;;;;;;;;;;;;;;;25.14;39.34;100131.19;5016692;28;961;-33
2021/05/03 04:05:48;;;;;;;;;;;;;;;25.56;38.30;100133.41;5016804;28;780;-33
2021/05/03 04:13:25;;;;;;;;;;;;;;;25.85;37.95;100163.22;5016906;28;709;-33
2021/05/03 04:21:30;;;;;;;;;;;;;;;26.07;37.54;100141.72;5016478;28;483;-34
2021/05/03 04:24:07;;;;;;;;;;;;;;;26.15;37.61;100152.38;5016408;28;760;-32
2021/05/03 04:26:32;;;;;;;;;;;;;;;26.11;37.48;100157.31;5016332;28;825;-32
2021/05/03 04:28:58;;;;;;;;;;;;;;;26.26;37.15;100172.59;5016898;28;799;-33
2021/05/03 04:31:23;;;;;;;;;;;;;;;26.07;37.79;100171.34;5016568;28;1039;-34
2021/05/03 04:33:49;;;;;;;;;;;;;;;26.13;37.56;100174.13;5016178;28;768;-33
2021/05/03 04:36:14;;;;;;;;;;;;;;;26.16;37.54;100189.91;5016280;28;1967;-34
2021/05/03 04:38:39;;;;;;;;;;;;;;;26.19;37.31;100186.03;5016286;28;749;-34
2021/05/03 04:41:05;;;;;;;;;;;;;;;26.27;37.05;100185.06;5012952;28;969;-34
2021/05/03 04:43:30;;;;;;;;;;;;;;;26.29;36.60;100175.75;5013799;28;956;-33
2021/05/03 04:45:55;;;;;;;;;;;;;;;26.28;34.92;100174.09;5015862;28;802;-33
2021/05/03 04:48:21;;;;;;;;;;;;;;;26.28;34.13;100181.34;5015407;28;879;-33
2021/05/03 04:50:46;;;;;;;;;;;;;;;26.40;33.89;100193.31;5015757;28;752;-34
2021/05/03 04:53:11;;;;;;;;;;;;;;;26.27;33.63;100191.31;5015470;28;848;-34
2021/05/03 04:55:37;;;;;;;;;;;;;;;26.15;33.86;100200.91;5018173;28;1898;-34
2021/05/03 04:58:02;;;;;;;;;;;;;;;26.15;32.97;100204.44;5019927;28;741;-34
2021/05/03 05:00:27;;;;;;;;;;;;;;;26.12;32.16;100202.13;5019271;28;768;-34
2021/05/03 05:02:53;;;;;;;;;;;;;;;26.28;32.51;100195.66;5019031;28;1056;-34
2021/05/03 05:05:18;;;;;;;;;;;;;;;26.33;32.58;100205.91;5019749;28;795;-34
2021/05/03 05:07:43;;;;;;;;;;;;;;;26.26;33.46;100224.66;5019585;28;785;-33
2021/05/03 05:10:09;;;;;;;;;;;;;;;26.28;33.03;100219.91;5019226;28;1298;-32
2021/05/03 05:12:34;;;;;;;;;;;;;;;26.46;33.03;100223.25;5019019;28;897;-34
2021/05/03 05:15:00;;;;;;;;;;;;;;;26.49;32.79;100231.78;5018840;28;1890;-38
2021/05/03 05:17:25;;;;;;;;;;;;;;;26.80;33.27;100240.59;5001656;28;1004;-35
2021/05/03 05:19:50;;;;;;;;;;;;;;;26.80;33.02;100240.59;5019037;28;816;-35
2021/05/03 05:22:16;;;;;;;;;;;;;;;26.69;32.78;100241.13;5017813;28;788;-38
2021/05/03 05:24:41;;;;;;;;;;;;;;;25.30;33.93;100247.81;5019884;28;745;-38
2021/05/03 05:27:06;;;;;;;;;;;;;;;24.43;33.26;100243.41;5019478;28;817;-46
2021/05/03 05:29:32;;;;;;;;;;;;;;;24.18;35.92;100245.38;5017913;28;869;-44
2021/05/03 05:31:57;;;;;;;;;;;;;;;24.25;37.09;100250.88;5018298;28;932;-36
2021/05/03 05:34:22;;;;;;;;;;;;;;;24.03;37.96;100243.41;5018928;28;1955;-44
2021/05/03 05:36:47;;;;;;;;;;;;;;;24.21;36.92;100242.31;5019123;28;823;-37
2021/05/03 05:39:13;;;;;;;;;;;;;;;24.25;37.64;100254.41;5019159;28;854;-37
2021/05/03 05:41:39;;;;;;;;;;;;;;;24.38;37.04;100251.16;5019083;28;831;-41
2021/05/03 05:44:06;;;;;;;;;;;;;;;24.18;37.53;100245.38;5018104;28;825;-39
2021/05/03 05:46:31;;;;;;;;;;;;;;;24.33;35.56;100253.53;5018577;28;950;-41
2021/05/03 05:48:57;;;;;;;;;;;;;;;24.51;35.75;100244.34;5018794;28;760;-41
2021/05/03 05:51:22;;;;;;;;;;;;;;;24.49;35.69;100244.53;5018543;28;824;-41
2021/05/03 05:53:47;;;;;;;;;;;;;;;24.70;35.29;100253.81;5018747;28;838;-40
2021/05/03 05:56:12;;;;;;;;;;;;;;;24.85;34.58;100264.63;5018525;28;1902;-42
2021/05/03 05:58:38;;;;;;;;;;;;;;;24.92;34.64;100272.88;5018415;28;590;-39
2021/05/03 06:01:03;;;;;;;;;;;;;;;25.23;34.44;100254.94;5018810;28;764;-43
2021/05/03 06:03:29;;;;;;;;;;;;;;;25.66;33.16;100254.38;5017184;28;1186;-42
2021/05/03 06:05:54;;;;;;;;;;;;;;;25.82;32.74;100253.38;5018701;28;781;-41
2021/05/03 06:08:19;;;;;;;;;;;;;;;25.79;32.56;100268.03;5018600;28;806;-37
2021/05/03 06:10:45;;;;;;;;;;;;;;;25.78;32.72;100268.22;5017910;28;1185;-43
2021/05/03 06:13:10;;;;;;;;;;;;;;;25.84;33.30;100272.84;5018469;28;740;-42
2021/05/03 06:15:35;;;;;;;;;;;;;;;25.77;34.16;100266.56;5018389;28;1902;-41
2021/05/03 06:18:01;;;;;;;;;;;;;;;25.87;33.34;100260.88;5017722;28;980;-42
2021/05/03 06:20:26;;;;;;;;;;;;;;;26.09;33.48;100266.34;4999363;28;1368;-43
2021/05/03 06:23:02;;;;;;;;;;;;;;;25.90;32.96;100268.59;5015151;28;940;-38
2021/05/03 06:25:28;;;;;;;;;;;;;;;25.94;33.50;100263.66;4988755;28;933;-40
2021/05/03 06:27:54;;;;;;;;;;;;;;;25.96;33.40;100258.94;4994626;28;1168;-43
2021/05/03 06:30:21;;;;;;;;;;;;;;;25.95;33.00;100266.19;4978476;28;31412;-40
2021/05/03 06:32:47;;;;;;;;;;;;;;;26.13;33.12;100265.78;4997295;28;933;-42
2021/05/03 06:35:12;;;;;;;;;;;;;;;26.17;33.23;100253.59;4998177;28;1890;-42
2021/05/03 06:37:38;;;;;;;;;;;;;;;26.25;33.20;100252.66;4998148;28;901;-42
2021/05/03 06:40:04;;;;;;;;;;;;;;;26.28;33.42;100246.88;5015702;28;857;-42
2021/05/03 06:42:30;;;;;;;;;;;;;;;26.41;33.50;100253.47;5017975;28;792;-42
2021/05/03 06:44:55;;;;;;;;;;;;;;;26.41;32.99;100256.16;5016929;28;828;-42
2021/05/03 06:47:21;;;;;;;;;;;;;;;26.25;32.53;100276.06;5017650;28;820;-39
2021/05/03 06:49:47;;;;;;;;;;;;;;;26.26;33.28;100277.75;5017594;28;783;-41
2021/05/03 06:52:13;;;;;;;;;;;;;;;26.20;32.92;100300.06;5017118;28;872;-42
2021/05/03 06:54:38;;;;;;;;;;;;;;;26.22;32.48;100298.88;5017480;28;1898;-42
2021/05/03 06:57:04;;;;;;;;;;;;;;;26.40;32.69;100305.75;5017568;28;791;-41
2021/05/03 06:59:30;;;;;;;;;;;;;;;26.44;32.67;100298.97;5017539;28;854;-43
2021/05/03 07:01:56;;;;;;;;;;;;;;;26.42;32.48;100306.41;5017725;28;895;-44
2021/05/03 07:04:22;;;;;;;;;;;;;;;26.47;33.20;100320.16;5000076;28;1248;-44
2021/05/03 07:06:47;;;;;;;;;;;;;;;26.36;32.25;100317.94;5017446;28;854;-41
2021/05/03 07:09:14;;;;;;;;;;;;;;;26.50;32.25;100319.78;5017032;28;1238;-41
2021/05/03 07:11:41;;;;;;;;;;;;;;;26.45;32.85;100308.72;5016960;28;866;-42
2021/05/03 07:14:07;;;;;;;;;;;;;;;26.57;32.48;100298.28;5017046;28;1960;-43
2021/05/03 07:16:33;;;;;;;;;;;;;;;26.57;32.12;100316.31;5016723;28;842;-44
2021/05/03 07:18:59;;;;;;;;;;;;;;;26.35;32.56;100319.81;5016762;28;830;-45
2021/05/03 07:21:25;;;;;;;;;;;;;;;25.79;33.79;100313.81;4999320;28;831;-39
2021/05/03 07:23:51;;;;;;;;;;;;;;;26.35;33.80;100324.34;5016497;28;1004;-39
2021/05/03 07:26:19;;;;;;;;;;;;;;;26.80;33.20;100316.16;5017278;28;819;-42
2021/05/03 07:28:45;;;;;;;;;;;;;;;26.94;33.46;100319.00;5014635;28;1134;-38
2021/05/03 07:31:11;;;;;;;;;;;;;;;26.75;33.31;100313.19;5015292;28;833;-39
2021/05/03 07:33:37;;;;;;;;;;;;;;;26.74;32.55;100312.34;5016803;28;787;-37
2021/05/03 07:36:02;;;;;;;;;;;;;;;26.72;33.23;100316.28;5016592;28;1910;-40
2021/05/03 07:38:28;;;;;;;;;;;;;;;26.82;33.47;100311.41;5016718;28;956;-39
2021/05/03 07:40:53;;;;;;;;;;;;;;;26.97;33.10;100294.31;5017033;28;842;-38
2021/05/03 07:43:20;;;;;;;;;;;;;;;27.16;32.77;100290.13;5016920;28;780;-39
2021/05/03 07:45:45;;;;;;;;;;;;;;;27.23;32.70;100282.09;5016869;28;838;-38
2021/05/03 07:48:11;;;;;;;;;;;;;;;27.33;32.67;100297.97;4988223;28;5691;-40
2021/05/03 07:50:37;;;;;;;;;;;;;;;27.47;33.20;100296.22;4992724;28;10412;-39
2021/05/03 07:53:07;;;;;;;;;;;;;;;27.59;32.70;100283.00;5016624;28;748;-38
2021/05/03 07:55:32;;;;;;;;;;;;;;;27.58;32.42;100290.25;4996966;28;1964;-39
2021/05/03 07:57:59;;;;;;;;;;;;;;;27.72;32.83;100290.38;4996815;28;715;-39
2021/05/03 08:00:25;;;;;;;;;;;;;;;27.57;33.64;100291.31;4996961;28;899;-36
2021/05/03 08:02:50;;;;;;;;;;;;;;;27.90;33.01;100286.31;4996647;28;812;-36
2021/05/03 08:05:15;;;;;;;;;;;;;;;27.97;32.78;100298.00;4997115;28;788;-39
2021/05/03 08:07:41;;;;;;;;;;;;;;;27.78;33.47;100296.88;4996861;28;895;-37
2021/05/03 08:10:06;;;;;;;;;;;;;;;28.08;33.03;100292.03;5011836;28;1249;-36
2021/05/03 08:12:32;;;;;;;;;;;;;;;28.23;32.33;100299.16;5028228;28;1164;-36
2021/05/03 08:14:59;;;;;;;;;;;;;;;28.40;32.12;100275.31;5016512;28;1975;-36
2021/05/03 08:17:24;;;;;;;;;;;;;;;28.42;32.27;100283.25;5016693;28;725;-35
2021/05/03 08:19:51;;;;;;;;;;;;;;;28.54;31.83;100284.31;5016551;28;737;-35
2021/05/03 08:22:16;;;;;;;;;;;;;;;28.58;30.68;100274.75;5016951;28;829;-35
2021/05/03 08:24:41;;;;;;;;;;;;;;;28.46;30.86;100279.91;5016566;28;1018;-36
2021/05/03 08:27:07;;;;;;;;;;;;;;;28.54;30.84;100278.06;5016520;28;864;-37
2021/05/03 08:29:33;;;;;;;;;;;;;;;28.36;30.22;100274.91;5016683;28;1434;-36
2021/05/03 08:31:58;;;;;;;;;;;;;;;28.31;30.61;100265.72;5020107;28;856;-35
2021/05/03 08:34:24;;;;;;;;;;;;;;;28.32;30.35;100260.09;5020177;28;1910;-35
2021/05/03 08:36:52;;;;;;;;;;;;;;;28.38;30.22;100271.97;5020112;28;864;-35
2021/05/03 08:39:17;;;;;;;;;;;;;;;28.21;30.12;100282.31;5019966;28;1019;-35
2021/05/03 08:41:42;;;;;;;;;;;;;;;28.23;30.05;100264.84;5020205;28;800;-35
2021/05/03 08:44:08;;;;;;;;;;;;;;;28.21;30.73;100272.31;5019726;28;881;-35
2021/05/03 08:46:38;;;;;;;;;;;;;;;28.31;30.12;100263.00;5019206;28;841;-36
2021/05/03 08:51:34;;;;;;;;;;;;;;;28.16;29.63;100274.78;5002689;28;736;-35
2021/05/03 08:54:41;;;;;;;;;;;;;;;28.26;29.72;100282.53;5019589;28;960;-35
2021/05/03 08:56:47;;;;;;;;;;;;;;;28.34;29.56;100293.19;5011724;28;1465;-34
2021/05/03 08:59:13;;;;;;;;;;;;;;;28.51;29.44;100282.00;5019843;28;828;-35
2021/05/03 09:01:38;;;;;;;;;;;;;;;28.56;29.21;100287.63;5019532;28;831;-35
2021/05/03 09:04:04;;;;;;;;;;;;;;;28.58;29.21;100293.69;4998593;28;828;-34
2021/05/03 09:06:29;;;;;;;;;;;;;;;28.50;28.45;100284.91;5001991;28;859;-35
2021/05/03 09:09:05;;;;;;;;;;;;;;;28.47;28.89;100292.44;5019141;28;1092;-36
2021/05/03 09:11:30;;;;;;;;;;;;;;;28.67;28.59;100304.31;5002173;28;835;-36
2021/05/03 09:14:05;;;;;;;;;;;;;;;28.71;28.67;100301.00;5019185;28;811;-35
2021/05/03 09:16:31;;;;;;;;;;;;;;;28.94;28.17;100294.41;5019364;28;812;-36
2021/05/03 09:18:56;;;;;;;;;;;;;;;28.75;27.91;100296.00;5019843;28;811;-35
2021/05/03 09:21:23;;;;;;;;;;;;;;;28.84;28.29;100292.06;5019390;28;828;-35
2021/05/03 09:24:06;;;;;;;;;;;;;;;28.92;28.06;100284.78;5019375;28;1028;-35
2021/05/03 09:26:32;;;;;;;;;;;;;;;28.91;28.08;100272.31;5016653;28;955;-35
2021/05/03 09:28:57;;;;;;;;;;;;;;;28.90;27.55;100263.34;5018918;28;851;-36
2021/05/03 09:31:23;;;;;;;;;;;;;;;28.83;28.13;100271.47;5002038;28;764;-34
2021/05/03 09:33:50;;;;;;;;;;;;;;;28.89;27.79;100277.94;5019515;28;859;-35
2021/05/03 09:36:16;;;;;;;;;;;;;;;28.95;28.11;100262.72;5019236;28;1902;-38
2021/05/03 09:38:42;;;;;;;;;;;;;;;28.94;28.30;100278.16;5001121;28;1130;-36
2021/05/03 09:41:07;;;;;;;;;;;;;;;29.01;28.74;100267.31;5018700;28;767;-34
2021/05/03 09:43:33;;;;;;;;;;;;;;;28.75;28.50;100262.69;5015865;28;902;-35
2021/05/03 09:45:58;;;;;;;;;;;;;;;28.82;27.91;100275.22;5017639;28;866;-35
2021/05/03 09:48:23;;;;;;;;;;;;;;;28.93;28.10;100270.22;5018360;28;822;-35
2021/05/03 09:50:49;;;;;;;;;;;;;;;28.89;27.91;100279.81;5018835;28;860;-35
2021/05/03 09:53:14;;;;;;;;;;;;;;;28.96;27.75;100257.09;5018447;28;924;-35
2021/05/03 09:55:46;;;;;;;;;;;;;;;29.04;28.55;100268.81;5000993;28;1906;-34
2021/05/03 09:58:24;;;;;;;;;;;;;;;29.21;28.45;100261.09;5018330;28;915;-34
2021/05/03 10:00:50;;;;;;;;;;;;;;;29.31;28.21;100271.50;5018655;28;784;-35
2021/05/03 10:03:57;;;;;;;;;;;;;;;29.38;28.28;100276.94;5018289;28;839;-34
2021/05/03 10:06:20;;;;;;;;;;;;;;;29.25;28.94;100272.31;5018081;28;1407;-36
2021/05/03 10:08:49;;;;;;;;;;;;;;;29.26;29.06;100277.53;5018031;28;995;-35
2021/05/03 10:11:16;;;;;;;;;;;;;;;29.04;29.65;100272.34;5017922;28;1294;-36
2021/05/03 10:13:42;;;;;;;;;;;;;;;28.91;29.92;100265.00;5018433;28;966;-35
2021/05/03 10:16:08;;;;;;;;;;;;;;;28.90;29.98;100254.38;5018580;28;1922;-35
2021/05/03 10:18:35;;;;;;;;;;;;;;;29.00;29.86;100273.78;5018284;28;804;-36
2021/05/03 10:21:00;;;;;;;;;;;;;;;29.07;29.94;100271.09;5018681;28;768;-34
2021/05/03 10:23:26;;;;;;;;;;;;;;;28.93;30.03;100287.28;5000729;28;976;-36
2021/05/03 10:25:54;;;;;;;;;;;;;;;29.04;29.76;100280.47;5000543;28;789;-36
2021/05/03 10:28:20;;;;;;;;;;;;;;;28.95;30.15;100287.94;5018183;28;749;-36
2021/05/03 10:30:47;;;;;;;;;;;;;;;29.06;29.59;100299.22;5018228;28;864;-35
2021/05/03 10:33:13;;;;;;;;;;;;;;;29.07;29.55;100296.31;5018148;28;867;-35
2021/05/03 10:35:42;;;;;;;;;;;;;;;29.18;29.30;100300.25;5000929;28;1914;-35
2021/05/03 10:38:27;;;;;;;;;;;;;;;29.20;29.36;100305.47;5017546;28;812;-37
2021/05/03 10:40:53;;;;;;;;;;;;;;;29.29;29.43;100309.66;5034129;28;1822;-36
2021/05/03 10:43:19;;;;;;;;;;;;;;;29.39;29.05;100300.25;5038024;28;724;-34
2021/05/03 10:48:46;;;;;;;;;;;;;;;28.99;29.78;100301.09;5024384;28;854;-36
2021/05/03 10:51:45;;;;;;;;;;;;;;;28.86;30.29;100321.66;5017863;28;850;-36
2021/05/03 10:54:21;;;;;;;;;;;;;;;28.84;30.25;100312.91;5016400;28;1902;-36
2021/05/03 10:56:47;;;;;;;;;;;;;;;28.92;30.31;100307.31;5017462;28;839;-36
2021/05/03 10:59:12;;;;;;;;;;;;;;;28.93;30.37;100325.19;5017723;28;826;-36
2021/05/03 11:01:53;;;;;;;;;;;;;;;29.07;29.87;100314.41;4999680;28;797;-36
2021/05/03 11:04:22;;;;;;;;;;;;;;;29.17;29.32;100292.34;5017680;28;768;-36
2021/05/03 11:06:50;;;;;;;;;;;;;;;29.16;29.27;100294.22;5017231;28;836;-36
2021/05/03 11:09:31;;;;;;;;;;;;;;;29.01;30.04;100304.44;5016955;28;1178;-36
2021/05/03 11:12:04;;;;;;;;;;;;;;;29.05;29.76;100311.91;5017401;28;807;-35
2021/05/03 11:14:32;;;;;;;;;;;;;;;29.01;29.94;100296.31;4999975;28;1914;-37
2021/05/03 11:17:00;;;;;;;;;;;;;;;28.97;30.18;100320.25;5017622;28;985;-36
2021/05/03 11:19:28;;;;;;;;;;;;;;;28.92;30.37;100310.00;5017386;28;859;-37
2021/05/03 11:21:53;;;;;;;;;;;;;;;28.93;30.58;100308.97;5017388;28;796;-37
2021/05/03 11:24:20;;;;;;;;;;;;;;;28.91;30.54;100311.03;5016946;28;980;-37
2021/05/03 11:26:51;;;;;;;;;;;;;;;28.93;30.73;100311.66;5017178;28;784;-38
2021/05/03 11:29:19;;;;;;;;;;;;;;;28.92;30.63;100315.41;5017104;28;831;-36
2021/05/03 11:31:44;;;;;;;;;;;;;;;28.84;30.81;100321.03;5016766;28;823;-37
2021/05/03 11:34:19;;;;;;;;;;;;;;;28.90;30.83;100319.34;5017065;28;1906;-37
2021/05/03 11:36:51;;;;;;;;;;;;;;;28.87;30.70;100319.78;5000628;28;843;-37
2021/05/03 11:39:28;;;;;;;;;;;;;;;28.87;30.84;100320.63;5016771;28;941;-38
2021/05/03 11:44:54;;;;;;;;;;;;;;;28.92;30.66;100318.13;5016841;28;764;-37
2021/05/03 11:47:30;;;;;;;;;;;;;;;28.81;30.87;100343.09;5016132;28;855;-36
2021/05/03 11:49:55;;;;;;;;;;;;;;;28.75;31.01;100335.78;5016440;28;824;-37
2021/05/03 11:52:30;;;;;;;;;;;;;;;28.83;31.21;100338.28;5016744;28;810;-36
2021/05/03 11:55:18;;;;;;;;;;;;;;;28.84;31.18;100329.16;5017007;28;1974;-37
2021/05/03 11:57:45;;;;;;;;;;;;;;;28.79;30.96;100331.63;5016809;28;787;-37
2021/05/03 12:00:11;;;;;;;;;;;;;;;28.77;30.91;100322.88;5016850;28;785;-37
2021/05/03 12:02:36;;;;;;;;;;;;;;;28.73;30.90;100301.63;5016800;28;804;-36
2021/05/03 12:05:02;;;;;;;;;;;;;;;28.68;31.05;100312.25;5019456;28;826;-33
2021/05/03 12:07:29;;;;;;;;;;;;;;;27.66;31.36;100315.47;5003091;28;1297;-37
2021/05/03 12:10:01;;;;;;;;;;;;;;;26.04;31.32;100329.72;5020485;28;1278;-38
2021/05/03 12:12:31;;;;;;;;;;;;;;;25.21;31.40;100327.78;5020166;28;795;-38
2021/05/03 12:14:56;;;;;;;;;;;;;;;24.38;31.97;100315.66;5020648;28;1906;-34
2021/05/03 12:17:30;;;;;;;;;;;;;;;23.94;32.20;100312.44;5020537;28;835;-36
2021/05/03 12:19:57;;;;;;;;;;;;;;;23.34;32.91;100304.59;5020593;28;789;-37
2021/05/03 12:22:22;;;;;;;;;;;;;;;23.06;33.10;100317.50;5020140;28;864;-38
2021/05/03 12:24:48;;;;;;;;;;;;;;;22.59;33.62;100328.59;5024369;28;1039;-35
2021/05/03 12:27:14;;;;;;;;;;;;;;;23.14;33.45;100314.00;5040058;28;795;-37
2021/05/03 12:29:40;;;;;;;;;;;;;;;25.04;31.43;100317.16;5040567;28;780;-36
2021/05/03 12:32:09;;;;;;;;;;;;;;;25.85;31.45;100308.72;5039770;28;757;-37
2021/05/03 12:34:38;;;;;;;;;;;;;;;26.29;31.91;100313.25;5031291;28;1894;-37
2021/05/03 12:37:03;;;;;;;;;;;;;;;26.61;31.87;100329.22;5020426;28;772;-34
2021/05/03 12:39:28;;;;;;;;;;;;;;;26.82;32.69;100321.34;5019786;28;854;-35
2021/05/03 12:41:55;;;;;;;;;;;;;;;26.99;32.22;100317.38;5019686;28;875;-35
2021/05/03 12:44:22;;;;;;;;;;;;;;;27.11;32.25;100314.22;5019733;28;877;-34
2021/05/03 12:46:47;;;;;;;;;;;;;;;27.27;32.73;100340.09;5002570;28;826;-36
2021/05/03 12:49:18;;;;;;;;;;;;;;;27.38;32.24;100325.22;5001892;28;839;-35
2021/05/03 12:52:04;;;;;;;;;;;;;;;26.87;33.32;100333.25;5002871;28;1173;-36
2021/05/03 12:54:38;;;;;;;;;;;;;;;24.89;32.71;100341.28;5019698;28;1910;-33
2021/05/03 13:02:14;;;;;;;;;;;;;;;22.91;35.24;100320.84;5019695;28;629;-38
2021/05/03 13:05:04;;;;;;;;;;;;;;;24.96;32.39;100378.28;5019831;28;752;-36
2021/05/03 13:07:52;;;;;;;;;;;;;;;25.94;31.37;100342.66;5020071;28;835;-39
2021/05/03 13:24:58;;;;;;;;;;;;;;;27.46;30.61;100362.09;5018883;28;1031;-35
2021/05/03 13:29:52;;;;;;;;;;;;;;;27.59;30.74;100374.84;5019057;28;630;-35
2021/05/03 13:32:20;;;;;;;;;;;;;;;27.69;30.49;100371.84;5018841;28;740;-38
2021/05/03 13:34:48;;;;;;;;;;;;;;;27.81;30.29;100372.97;5019307;28;1909;-40